Archival Weather

Heathrow

London, United Kingdom (EGLL)

Report from: Thursday, September 21, 2023 5:20 PM BST
Current time: Sunday, July 14, 2024 10:48 AM BST

Current weather – Weather history – Daily summaries
Weather forecast

Present weatherThunderstorms in the vicinity
Temperature13.0°C (55.4°F)
Dew point10.0°C (50.0°F)
Winds 8 kts (4.1 m/s, 9.2 mph) Vrb
Winds variableWinds variable from East (100°) to South (180°)
Visibility6.2 mi. (10 km)
Clouds Ceiling: Broken clouds with cumulonimbus 3,400 ft. (1,036 m)
Broken clouds 4,600 ft. (1,402 m)
Altimeter29.35 in.Hg (994 mB)
Relative humidity82 %
Density altitude593 ft. (181 m)
Flight conditions Visual Meteorological Conditions
Raw dataEGLL 211620Z 13008KT 100V180 9999 VCTS BKN034CB BKN046 13/10 Q0994 RETS
An error has occurred. This application may no longer respond until reloaded. Reload 🗙